sensor_id;sensor_type;location;lat;lon;timestamp;temperature;humidity
5059;DHT22;2548;52.050;11.036;2022-10-16T00:00:04;15.30;99.90
5059;DHT22;2548;52.050;11.036;2022-10-16T00:02:33;15.20;99.90
5059;DHT22;2548;52.050;11.036;2022-10-16T00:05:00;15.20;99.90
5059;DHT22;2548;52.050;11.036;2022-10-16T00:07:28;15.20;99.90
5059;DHT22;2548;52.050;11.036;2022-10-16T00:09:55;15.20;99.90
5059;DHT22;2548;52.050;11.036;2022-10-16T00:12:22;15.10;99.90
5059;DHT22;2548;52.050;11.036;2022-10-16T00:14:50;15.10;99.90
5059;DHT22;2548;52.050;11.036;2022-10-16T00:17:18;15.10;99.90
5059;DHT22;2548;52.050;11.036;2022-10-16T00:19:46;15.10;99.90
5059;DHT22;2548;52.050;11.036;2022-10-16T00:22:14;15.00;99.90
5059;DHT22;2548;52.050;11.036;2022-10-16T00:24:41;15.00;99.90
5059;DHT22;2548;52.050;11.036;2022-10-16T00:27:08;15.00;99.90
5059;DHT22;2548;52.050;11.036;2022-10-16T00:29:36;15.00;99.90
5059;DHT22;2548;52.050;11.036;2022-10-16T00:32:03;15.00;99.90
5059;DHT22;2548;52.050;11.036;2022-10-16T00:34:31;14.90;99.90
5059;DHT22;2548;52.050;11.036;2022-10-16T00:36:59;14.90;99.90
5059;DHT22;2548;52.050;11.036;2022-10-16T00:39:27;14.80;99.90
5059;DHT22;2548;52.050;11.036;2022-10-16T00:41:54;14.80;99.90
5059;DHT22;2548;52.050;11.036;2022-10-16T00:44:41;14.80;99.90
5059;DHT22;2548;52.050;11.036;2022-10-16T00:47:09;14.70;99.90
5059;DHT22;2548;52.050;11.036;2022-10-16T00:49:38;14.70;99.90
5059;DHT22;2548;52.050;11.036;2022-10-16T00:52:07;14.60;99.90
5059;DHT22;2548;52.050;11.036;2022-10-16T00:54:35;14.60;99.90
5059;DHT22;2548;52.050;11.036;2022-10-16T00:57:05;14.50;99.90
5059;DHT22;2548;52.050;11.036;2022-10-16T00:59:35;14.50;99.90
5059;DHT22;2548;52.050;11.036;2022-10-16T01:02:03;14.50;99.90
5059;DHT22;2548;52.050;11.036;2022-10-16T01:04:33;14.50;99.90
5059;DHT22;2548;52.050;11.036;2022-10-16T01:07:09;14.40;99.90
5059;DHT22;2548;52.050;11.036;2022-10-16T01:09:46;14.30;99.90
5059;DHT22;2548;52.050;11.036;2022-10-16T01:12:16;14.30;99.90
5059;DHT22;2548;52.050;11.036;2022-10-16T01:14:51;14.30;99.90
5059;DHT22;2548;52.050;11.036;2022-10-16T01:17:26;14.30;99.90
5059;DHT22;2548;52.050;11.036;2022-10-16T01:20:10;14.20;99.90
5059;DHT22;2548;52.050;11.036;2022-10-16T01:23:01;14.30;99.90
5059;DHT22;2548;52.050;11.036;2022-10-16T01:25:39;14.30;99.90
5059;DHT22;2548;52.050;11.036;2022-10-16T01:28:15;14.30;99.90
5059;DHT22;2548;52.050;11.036;2022-10-16T01:30:45;14.30;99.90
5059;DHT22;2548;52.050;11.036;2022-10-16T01:33:16;14.20;99.90
5059;DHT22;2548;52.050;11.036;2022-10-16T01:35:48;14.30;99.90
5059;DHT22;2548;52.050;11.036;2022-10-16T01:38:22;14.20;99.90
5059;DHT22;2548;52.050;11.036;2022-10-16T01:40:54;14.20;99.90
5059;DHT22;2548;52.050;11.036;2022-10-16T01:43:28;14.20;99.90
5059;DHT22;2548;52.050;11.036;2022-10-16T01:45:59;14.20;99.90
5059;DHT22;2548;52.050;11.036;2022-10-16T01:48:28;14.30;99.90
5059;DHT22;2548;52.050;11.036;2022-10-16T01:50:59;14.30;99.90
5059;DHT22;2548;52.050;11.036;2022-10-16T01:53:27;14.30;99.90
5059;DHT22;2548;52.050;11.036;2022-10-16T01:55:55;14.30;99.90
5059;DHT22;2548;52.050;11.036;2022-10-16T01:58:27;14.30;99.90
5059;DHT22;2548;52.050;11.036;2022-10-16T02:01:00;14.30;99.90
5059;DHT22;2548;52.050;11.036;2022-10-16T02:03:28;14.20;99.90
5059;DHT22;2548;52.050;11.036;2022-10-16T02:05:57;14.30;99.90
5059;DHT22;2548;52.050;11.036;2022-10-16T02:08:28;14.30;99.90
5059;DHT22;2548;52.050;11.036;2022-10-16T02:10:57;14.30;99.90
5059;DHT22;2548;52.050;11.036;2022-10-16T02:13:31;14.30;99.90
5059;DHT22;2548;52.050;11.036;2022-10-16T02:16:00;14.30;99.90
5059;DHT22;2548;52.050;11.036;2022-10-16T02:18:27;14.30;99.90
5059;DHT22;2548;52.050;11.036;2022-10-16T02:20:59;14.30;99.90
5059;DHT22;2548;52.050;11.036;2022-10-16T02:23:35;14.30;99.90
5059;DHT22;2548;52.050;11.036;2022-10-16T02:26:07;14.30;99.90
5059;DHT22;2548;52.050;11.036;2022-10-16T02:28:42;14.30;99.90
5059;DHT22;2548;52.050;11.036;2022-10-16T02:31:18;14.30;99.90
5059;DHT22;2548;52.050;11.036;2022-10-16T02:33:46;14.30;99.90
5059;DHT22;2548;52.050;11.036;2022-10-16T02:36:13;14.30;99.90
5059;DHT22;2548;52.050;11.036;2022-10-16T02:38:41;14.30;99.90
5059;DHT22;2548;52.050;11.036;2022-10-16T02:41:08;14.30;99.90
5059;DHT22;2548;52.050;11.036;2022-10-16T02:43:37;14.30;99.90
5059;DHT22;2548;52.050;11.036;2022-10-16T02:46:05;14.30;99.90
5059;DHT22;2548;52.050;11.036;2022-10-16T02:48:32;14.30;99.90
5059;DHT22;2548;52.050;11.036;2022-10-16T02:50:59;14.40;99.90
5059;DHT22;2548;52.050;11.036;2022-10-16T02:53:26;14.30;99.90
5059;DHT22;2548;52.050;11.036;2022-10-16T02:55:54;14.30;99.90
5059;DHT22;2548;52.050;11.036;2022-10-16T02:58:21;14.20;99.90
5059;DHT22;2548;52.050;11.036;2022-10-16T03:00:50;14.10;99.90
5059;DHT22;2548;52.050;11.036;2022-10-16T03:03:18;14.10;99.90
5059;DHT22;2548;52.050;11.036;2022-10-16T03:05:45;14.00;99.90
5059;DHT22;2548;52.050;11.036;2022-10-16T03:08:13;13.90;99.90
5059;DHT22;2548;52.050;11.036;2022-10-16T03:10:40;14.00;99.90
5059;DHT22;2548;52.050;11.036;2022-10-16T03:13:08;13.90;99.90
5059;DHT22;2548;52.050;11.036;2022-10-16T03:15:35;13.90;99.90
5059;DHT22;2548;52.050;11.036;2022-10-16T03:18:04;13.90;99.90
5059;DHT22;2548;52.050;11.036;2022-10-16T03:20:31;13.80;99.90
5059;DHT22;2548;52.050;11.036;2022-10-16T03:22:58;13.80;99.90
5059;DHT22;2548;52.050;11.036;2022-10-16T03:25:26;13.80;99.90
5059;DHT22;2548;52.050;11.036;2022-10-16T03:27:53;13.70;99.90
5059;DHT22;2548;52.050;11.036;2022-10-16T03:30:20;13.70;99.90
5059;DHT22;2548;52.050;11.036;2022-10-16T03:32:48;13.70;99.90
5059;DHT22;2548;52.050;11.036;2022-10-16T03:35:21;13.70;99.90
5059;DHT22;2548;52.050;11.036;2022-10-16T03:37:49;13.70;99.90
5059;DHT22;2548;52.050;11.036;2022-10-16T03:40:16;13.70;99.90
5059;DHT22;2548;52.050;11.036;2022-10-16T03:42:44;13.70;99.90
5059;DHT22;2548;52.050;11.036;2022-10-16T03:45:11;13.70;99.90
5059;DHT22;2548;52.050;11.036;2022-10-16T03:47:39;13.70;99.90
5059;DHT22;2548;52.050;11.036;2022-10-16T03:50:07;13.70;99.90
5059;DHT22;2548;52.050;11.036;2022-10-16T03:52:35;13.70;99.90
5059;DHT22;2548;52.050;11.036;2022-10-16T03:55:03;13.60;99.90
5059;DHT22;2548;52.050;11.036;2022-10-16T03:57:31;13.60;99.90
5059;DHT22;2548;52.050;11.036;2022-10-16T03:59:58;13.60;99.90
5059;DHT22;2548;52.050;11.036;2022-10-16T04:02:26;13.60;99.90
5059;DHT22;2548;52.050;11.036;2022-10-16T04:04:53;13.50;99.90
5059;DHT22;2548;52.050;11.036;2022-10-16T04:07:20;13.50;99.90
5059;DHT22;2548;52.050;11.036;2022-10-16T04:09:49;13.50;99.90
5059;DHT22;2548;52.050;11.036;2022-10-16T04:12:18;13.50;99.90
5059;DHT22;2548;52.050;11.036;2022-10-16T04:14:45;13.60;99.90
5059;DHT22;2548;52.050;11.036;2022-10-16T04:17:12;13.50;99.90
5059;DHT22;2548;52.050;11.036;2022-10-16T04:19:40;13.50;99.90
5059;DHT22;2548;52.050;11.036;2022-10-16T04:22:07;13.50;99.90
5059;DHT22;2548;52.050;11.036;2022-10-16T04:24:34;13.50;99.90
5059;DHT22;2548;52.050;11.036;2022-10-16T04:27:03;13.50;99.90
5059;DHT22;2548;52.050;11.036;2022-10-16T04:29:31;13.60;99.90
5059;DHT22;2548;52.050;11.036;2022-10-16T04:31:58;13.60;99.90
5059;DHT22;2548;52.050;11.036;2022-10-16T04:34:25;13.50;99.90
5059;DHT22;2548;52.050;11.036;2022-10-16T04:36:52;13.50;99.90
5059;DHT22;2548;52.050;11.036;2022-10-16T04:39:20;13.50;99.90
5059;DHT22;2548;52.050;11.036;2022-10-16T04:41:47;13.50;99.90
5059;DHT22;2548;52.050;11.036;2022-10-16T04:44:16;13.50;99.90
5059;DHT22;2548;52.050;11.036;2022-10-16T04:46:43;13.50;99.90
5059;DHT22;2548;52.050;11.036;2022-10-16T04:49:11;13.50;99.90
5059;DHT22;2548;52.050;11.036;2022-10-16T04:51:38;13.50;99.90
5059;DHT22;2548;52.050;11.036;2022-10-16T04:54:06;13.50;99.90
5059;DHT22;2548;52.050;11.036;2022-10-16T04:56:33;13.50;99.90
5059;DHT22;2548;52.050;11.036;2022-10-16T04:59:06;13.50;99.90
5059;DHT22;2548;52.050;11.036;2022-10-16T05:01:35;13.40;99.90
5059;DHT22;2548;52.050;11.036;2022-10-16T05:04:02;13.40;99.90
5059;DHT22;2548;52.050;11.036;2022-10-16T05:06:30;13.40;99.90
5059;DHT22;2548;52.050;11.036;2022-10-16T05:08:57;13.40;99.90
5059;DHT22;2548;52.050;11.036;2022-10-16T05:11:25;13.40;99.90
5059;DHT22;2548;52.050;11.036;2022-10-16T05:13:52;13.40;99.90
5059;DHT22;2548;52.050;11.036;2022-10-16T05:16:19;13.40;99.90
5059;DHT22;2548;52.050;11.036;2022-10-16T05:18:48;13.40;99.90
5059;DHT22;2548;52.050;11.036;2022-10-16T05:21:15;13.50;99.90
5059;DHT22;2548;52.050;11.036;2022-10-16T05:23:43;13.50;99.90
5059;DHT22;2548;52.050;11.036;2022-10-16T05:26:10;13.50;99.90
5059;DHT22;2548;52.050;11.036;2022-10-16T05:28:38;13.50;99.90
5059;DHT22;2548;52.050;11.036;2022-10-16T05:31:06;13.50;99.90
5059;DHT22;2548;52.050;11.036;2022-10-16T05:33:33;13.50;99.90
5059;DHT22;2548;52.050;11.036;2022-10-16T05:36:03;13.50;99.90
5059;DHT22;2548;52.050;11.036;2022-10-16T05:38:31;13.50;99.90
5059;DHT22;2548;52.050;11.036;2022-10-16T05:40:58;13.50;99.90
5059;DHT22;2548;52.050;11.036;2022-10-16T05:43:27;13.40;99.90
5059;DHT22;2548;52.050;11.036;2022-10-16T05:45:55;13.40;99.90
5059;DHT22;2548;52.050;11.036;2022-10-16T05:48:23;13.40;99.90
5059;DHT22;2548;52.050;11.036;2022-10-16T05:51:02;13.40;99.90
5059;DHT22;2548;52.050;11.036;2022-10-16T05:53:32;13.40;99.90
5059;DHT22;2548;52.050;11.036;2022-10-16T05:56:00;13.40;99.90
5059;DHT22;2548;52.050;11.036;2022-10-16T05:58:29;13.40;99.90
5059;DHT22;2548;52.050;11.036;2022-10-16T06:00:59;13.40;99.90
5059;DHT22;2548;52.050;11.036;2022-10-16T06:03:27;13.40;99.90
5059;DHT22;2548;52.050;11.036;2022-10-16T06:05:55;13.40;99.90
5059;DHT22;2548;52.050;11.036;2022-10-16T06:08:24;13.40;99.90
5059;DHT22;2548;52.050;11.036;2022-10-16T06:11:00;13.50;99.90
5059;DHT22;2548;52.050;11.036;2022-10-16T06:13:28;13.50;99.90
5059;DHT22;2548;52.050;11.036;2022-10-16T06:15:57;13.50;99.90
5059;DHT22;2548;52.050;11.036;2022-10-16T06:18:24;13.50;99.90
5059;DHT22;2548;52.050;11.036;2022-10-16T06:20:52;13.60;99.90
5059;DHT22;2548;52.050;11.036;2022-10-16T06:23:19;13.60;99.90
5059;DHT22;2548;52.050;11.036;2022-10-16T06:25:48;13.60;99.90
5059;DHT22;2548;52.050;11.036;2022-10-16T06:28:16;13.60;99.90
5059;DHT22;2548;52.050;11.036;2022-10-16T06:30:43;13.60;99.90
5059;DHT22;2548;52.050;11.036;2022-10-16T06:33:11;13.60;99.90
5059;DHT22;2548;52.050;11.036;2022-10-16T06:35:39;13.50;99.90
5059;DHT22;2548;52.050;11.036;2022-10-16T06:38:06;13.50;99.90
5059;DHT22;2548;52.050;11.036;2022-10-16T06:40:34;13.50;99.90
5059;DHT22;2548;52.050;11.036;2022-10-16T06:43:02;13.50;99.90
5059;DHT22;2548;52.050;11.036;2022-10-16T06:45:30;13.50;99.90
5059;DHT22;2548;52.050;11.036;2022-10-16T06:47:57;13.50;99.90
5059;DHT22;2548;52.050;11.036;2022-10-16T06:50:24;13.50;99.90
5059;DHT22;2548;52.050;11.036;2022-10-16T06:52:52;13.50;99.90
5059;DHT22;2548;52.050;11.036;2022-10-16T06:55:19;13.50;99.90
5059;DHT22;2548;52.050;11.036;2022-10-16T06:57:47;13.50;99.90
5059;DHT22;2548;52.050;11.036;2022-10-16T07:00:16;13.50;99.90
5059;DHT22;2548;52.050;11.036;2022-10-16T07:02:43;13.60;99.90
5059;DHT22;2548;52.050;11.036;2022-10-16T07:05:10;13.60;99.90
5059;DHT22;2548;52.050;11.036;2022-10-16T07:07:38;13.60;99.90
5059;DHT22;2548;52.050;11.036;2022-10-16T07:10:05;13.70;99.90
5059;DHT22;2548;52.050;11.036;2022-10-16T07:12:33;13.70;99.90
5059;DHT22;2548;52.050;11.036;2022-10-16T07:15:00;13.80;99.90
5059;DHT22;2548;52.050;11.036;2022-10-16T07:17:29;13.90;99.90
5059;DHT22;2548;52.050;11.036;2022-10-16T07:19:56;13.90;99.90
5059;DHT22;2548;52.050;11.036;2022-10-16T07:22:24;14.00;99.90
5059;DHT22;2548;52.050;11.036;2022-10-16T07:24:51;14.00;99.90
5059;DHT22;2548;52.050;11.036;2022-10-16T07:27:18;14.00;99.90
5059;DHT22;2548;52.050;11.036;2022-10-16T07:29:48;14.10;99.90
5059;DHT22;2548;52.050;11.036;2022-10-16T07:32:15;14.10;99.90
5059;DHT22;2548;52.050;11.036;2022-10-16T07:34:44;14.10;99.90
5059;DHT22;2548;52.050;11.036;2022-10-16T07:37:11;14.10;99.90
5059;DHT22;2548;52.050;11.036;2022-10-16T07:39:39;14.20;99.90
5059;DHT22;2548;52.050;11.036;2022-10-16T07:42:06;14.10;99.90
5059;DHT22;2548;52.050;11.036;2022-10-16T07:44:33;14.10;99.90
5059;DHT22;2548;52.050;11.036;2022-10-16T07:47:01;14.10;99.90
5059;DHT22;2548;52.050;11.036;2022-10-16T07:49:28;14.20;99.90
5059;DHT22;2548;52.050;11.036;2022-10-16T07:51:57;14.20;99.90
5059;DHT22;2548;52.050;11.036;2022-10-16T07:54:24;14.20;99.90
5059;DHT22;2548;52.050;11.036;2022-10-16T07:56:52;14.20;99.90
5059;DHT22;2548;52.050;11.036;2022-10-16T07:59:19;14.10;99.90
5059;DHT22;2548;52.050;11.036;2022-10-16T08:01:48;14.10;99.90
5059;DHT22;2548;52.050;11.036;2022-10-16T08:04:15;14.20;99.90
5059;DHT22;2548;52.050;11.036;2022-10-16T08:06:43;14.20;99.90
5059;DHT22;2548;52.050;11.036;2022-10-16T08:09:11;14.30;99.90
5059;DHT22;2548;52.050;11.036;2022-10-16T08:11:39;14.40;99.90
5059;DHT22;2548;52.050;11.036;2022-10-16T08:14:06;14.60;99.90
5059;DHT22;2548;52.050;11.036;2022-10-16T08:16:33;14.70;99.90
5059;DHT22;2548;52.050;11.036;2022-10-16T08:19:01;15.00;99.90
5059;DHT22;2548;52.050;11.036;2022-10-16T08:21:28;15.10;99.90
5059;DHT22;2548;52.050;11.036;2022-10-16T08:23:56;15.20;99.90
5059;DHT22;2548;52.050;11.036;2022-10-16T08:26:25;15.20;99.90
5059;DHT22;2548;52.050;11.036;2022-10-16T08:28:53;15.30;99.90
5059;DHT22;2548;52.050;11.036;2022-10-16T08:31:21;15.40;99.90
5059;DHT22;2548;52.050;11.036;2022-10-16T08:33:49;15.50;99.90
5059;DHT22;2548;52.050;11.036;2022-10-16T08:36:17;15.70;99.90
5059;DHT22;2548;52.050;11.036;2022-10-16T08:38:47;15.80;99.90
5059;DHT22;2548;52.050;11.036;2022-10-16T08:41:28;15.90;99.90
5059;DHT22;2548;52.050;11.036;2022-10-16T08:44:09;15.90;99.90
5059;DHT22;2548;52.050;11.036;2022-10-16T08:46:46;15.90;99.90
5059;DHT22;2548;52.050;11.036;2022-10-16T08:49:15;15.90;99.90
5059;DHT22;2548;52.050;11.036;2022-10-16T08:51:43;16.00;99.90
5059;DHT22;2548;52.050;11.036;2022-10-16T08:54:21;16.00;99.90
5059;DHT22;2548;52.050;11.036;2022-10-16T08:56:53;16.00;99.90
5059;DHT22;2548;52.050;11.036;2022-10-16T08:59:20;16.10;99.90
5059;DHT22;2548;52.050;11.036;2022-10-16T09:01:50;16.20;99.90
5059;DHT22;2548;52.050;11.036;2022-10-16T09:04:48;16.30;99.90
5059;DHT22;2548;52.050;11.036;2022-10-16T09:07:24;16.40;99.90
5059;DHT22;2548;52.050;11.036;2022-10-16T09:10:05;16.40;99.90
5059;DHT22;2548;52.050;11.036;2022-10-16T09:12:38;16.50;99.90
5059;DHT22;2548;52.050;11.036;2022-10-16T09:15:16;16.70;99.90
5059;DHT22;2548;52.050;11.036;2022-10-16T09:17:52;16.90;99.90
5059;DHT22;2548;52.050;11.036;2022-10-16T09:20:28;17.00;99.90
5059;DHT22;2548;52.050;11.036;2022-10-16T09:23:12;17.10;99.90
5059;DHT22;2548;52.050;11.036;2022-10-16T09:25:43;17.20;99.90
5059;DHT22;2548;52.050;11.036;2022-10-16T09:28:12;17.40;99.90
5059;DHT22;2548;52.050;11.036;2022-10-16T09:30:40;17.50;99.90
5059;DHT22;2548;52.050;11.036;2022-10-16T09:33:09;17.50;99.90
5059;DHT22;2548;52.050;11.036;2022-10-16T09:35:38;17.60;99.90
5059;DHT22;2548;52.050;11.036;2022-10-16T09:38:06;17.60;99.90
5059;DHT22;2548;52.050;11.036;2022-10-16T09:40:36;17.70;99.90
5059;DHT22;2548;52.050;11.036;2022-10-16T09:43:18;17.70;99.90
5059;DHT22;2548;52.050;11.036;2022-10-16T09:45:54;17.70;99.90
5059;DHT22;2548;52.050;11.036;2022-10-16T09:48:22;17.80;99.90
5059;DHT22;2548;52.050;11.036;2022-10-16T09:50:57;17.90;99.90
5059;DHT22;2548;52.050;11.036;2022-10-16T09:53:37;18.00;99.90
5059;DHT22;2548;52.050;11.036;2022-10-16T09:56:05;18.00;99.90
5059;DHT22;2548;52.050;11.036;2022-10-16T09:58:34;18.00;99.90
5059;DHT22;2548;52.050;11.036;2022-10-16T10:01:01;18.00;99.90
5059;DHT22;2548;52.050;11.036;2022-10-16T10:03:37;18.00;99.90
5059;DHT22;2548;52.050;11.036;2022-10-16T10:06:14;18.00;99.90
5059;DHT22;2548;52.050;11.036;2022-10-16T10:08:56;18.00;99.90
5059;DHT22;2548;52.050;11.036;2022-10-16T10:11:38;18.00;99.90
5059;DHT22;2548;52.050;11.036;2022-10-16T10:14:17;18.00;99.90
5059;DHT22;2548;52.050;11.036;2022-10-16T10:16:45;18.10;99.90
5059;DHT22;2548;52.050;11.036;2022-10-16T10:19:16;18.10;99.90
5059;DHT22;2548;52.050;11.036;2022-10-16T10:21:45;18.10;99.90
5059;DHT22;2548;52.050;11.036;2022-10-16T10:24:13;18.30;99.90
5059;DHT22;2548;52.050;11.036;2022-10-16T10:26:47;18.30;99.90
5059;DHT22;2548;52.050;11.036;2022-10-16T10:29:26;18.40;99.90
5059;DHT22;2548;52.050;11.036;2022-10-16T10:32:02;18.70;99.90
5059;DHT22;2548;52.050;11.036;2022-10-16T10:34:44;18.90;99.90
5059;DHT22;2548;52.050;11.036;2022-10-16T10:37:27;19.00;99.90
5059;DHT22;2548;52.050;11.036;2022-10-16T10:40:02;19.10;99.90
5059;DHT22;2548;52.050;11.036;2022-10-16T10:42:34;19.10;99.90
5059;DHT22;2548;52.050;11.036;2022-10-16T10:45:19;19.20;99.90
5059;DHT22;2548;52.050;11.036;2022-10-16T10:47:59;19.20;99.90
5059;DHT22;2548;52.050;11.036;2022-10-16T10:50:36;19.20;99.90
5059;DHT22;2548;52.050;11.036;2022-10-16T10:53:12;19.00;99.90
5059;DHT22;2548;52.050;11.036;2022-10-16T10:55:47;19.00;99.90
5059;DHT22;2548;52.050;11.036;2022-10-16T10:58:45;19.00;99.90
5059;DHT22;2548;52.050;11.036;2022-10-16T11:01:17;19.00;99.90
5059;DHT22;2548;52.050;11.036;2022-10-16T11:04:09;18.90;99.90
5059;DHT22;2548;52.050;11.036;2022-10-16T11:06:45;19.00;99.90
5059;DHT22;2548;52.050;11.036;2022-10-16T11:09:18;19.10;99.90
5059;DHT22;2548;52.050;11.036;2022-10-16T11:11:51;19.20;99.90
5059;DHT22;2548;52.050;11.036;2022-10-16T11:14:25;19.10;99.90
5059;DHT22;2548;52.050;11.036;2022-10-16T11:17:01;19.20;99.90
5059;DHT22;2548;52.050;11.036;2022-10-16T11:19:35;19.30;99.90
5059;DHT22;2548;52.050;11.036;2022-10-16T11:22:09;19.40;99.90
5059;DHT22;2548;52.050;11.036;2022-10-16T11:24:42;19.30;99.90
5059;DHT22;2548;52.050;11.036;2022-10-16T11:27:16;19.00;99.90
5059;DHT22;2548;52.050;11.036;2022-10-16T11:29:50;18.70;99.90
5059;DHT22;2548;52.050;11.036;2022-10-16T11:32:27;18.50;99.90
5059;DHT22;2548;52.050;11.036;2022-10-16T11:35:00;18.40;99.90
5059;DHT22;2548;52.050;11.036;2022-10-16T11:37:33;18.50;99.90
5059;DHT22;2548;52.050;11.036;2022-10-16T11:40:16;18.40;99.90
5059;DHT22;2548;52.050;11.036;2022-10-16T11:42:52;18.60;99.90
5059;DHT22;2548;52.050;11.036;2022-10-16T11:45:29;18.80;99.90
5059;DHT22;2548;52.050;11.036;2022-10-16T11:48:08;19.10;99.90
5059;DHT22;2548;52.050;11.036;2022-10-16T11:50:45;19.30;99.90
5059;DHT22;2548;52.050;11.036;2022-10-16T11:53:23;19.20;99.90
5059;DHT22;2548;52.050;11.036;2022-10-16T11:55:56;19.10;99.90
5059;DHT22;2548;52.050;11.036;2022-10-16T11:58:27;19.00;99.90
5059;DHT22;2548;52.050;11.036;2022-10-16T12:01:04;19.00;99.90
5059;DHT22;2548;52.050;11.036;2022-10-16T12:03:44;19.00;99.90
5059;DHT22;2548;52.050;11.036;2022-10-16T12:06:23;19.10;99.90
5059;DHT22;2548;52.050;11.036;2022-10-16T12:08:54;19.20;99.90
5059;DHT22;2548;52.050;11.036;2022-10-16T12:11:31;19.40;99.90
5059;DHT22;2548;52.050;11.036;2022-10-16T12:14:21;19.50;99.90
5059;DHT22;2548;52.050;11.036;2022-10-16T12:16:55;19.50;99.90
5059;DHT22;2548;52.050;11.036;2022-10-16T12:19:28;19.40;99.90
5059;DHT22;2548;52.050;11.036;2022-10-16T12:21:58;19.50;99.90
5059;DHT22;2548;52.050;11.036;2022-10-16T12:24:37;19.60;99.90
5059;DHT22;2548;52.050;11.036;2022-10-16T12:27:21;19.70;99.90
5059;DHT22;2548;52.050;11.036;2022-10-16T12:29:54;19.80;99.90
5059;DHT22;2548;52.050;11.036;2022-10-16T12:32:28;19.90;99.90
5059;DHT22;2548;52.050;11.036;2022-10-16T12:34:59;20.00;99.90
5059;DHT22;2548;52.050;11.036;2022-10-16T12:37:31;20.10;99.90
5059;DHT22;2548;52.050;11.036;2022-10-16T12:40:12;20.00;99.90
5059;DHT22;2548;52.050;11.036;2022-10-16T12:42:41;19.80;99.90
5059;DHT22;2548;52.050;11.036;2022-10-16T12:45:25;19.70;99.90
5059;DHT22;2548;52.050;11.036;2022-10-16T12:47:55;19.60;99.90
5059;DHT22;2548;52.050;11.036;2022-10-16T12:50:30;19.60;99.90
5059;DHT22;2548;52.050;11.036;2022-10-16T12:52:58;19.50;99.90
5059;DHT22;2548;52.050;11.036;2022-10-16T12:55:26;19.50;99.90
5059;DHT22;2548;52.050;11.036;2022-10-16T12:58:09;19.60;99.90
5059;DHT22;2548;52.050;11.036;2022-10-16T13:00:45;19.60;99.90
5059;DHT22;2548;52.050;11.036;2022-10-16T13:03:40;19.80;99.90
5059;DHT22;2548;52.050;11.036;2022-10-16T13:06:22;19.80;99.90
5059;DHT22;2548;52.050;11.036;2022-10-16T13:09:05;19.90;99.90
5059;DHT22;2548;52.050;11.036;2022-10-16T13:11:48;20.10;99.90
5059;DHT22;2548;52.050;11.036;2022-10-16T13:14:36;20.20;99.90
5059;DHT22;2548;52.050;11.036;2022-10-16T13:17:12;20.30;99.90
5059;DHT22;2548;52.050;11.036;2022-10-16T13:19:48;20.40;99.90
5059;DHT22;2548;52.050;11.036;2022-10-16T13:22:26;20.40;99.90
5059;DHT22;2548;52.050;11.036;2022-10-16T13:25:08;20.50;99.90
5059;DHT22;2548;52.050;11.036;2022-10-16T13:27:45;20.50;99.90
5059;DHT22;2548;52.050;11.036;2022-10-16T13:30:18;20.40;99.90
5059;DHT22;2548;52.050;11.036;2022-10-16T13:32:48;20.40;99.90
5059;DHT22;2548;52.050;11.036;2022-10-16T13:35:21;20.40;99.90
5059;DHT22;2548;52.050;11.036;2022-10-16T13:37:50;20.40;99.90
5059;DHT22;2548;52.050;11.036;2022-10-16T13:40:21;20.40;99.90
5059;DHT22;2548;52.050;11.036;2022-10-16T13:42:49;20.50;99.90
5059;DHT22;2548;52.050;11.036;2022-10-16T13:45:18;20.50;99.90
5059;DHT22;2548;52.050;11.036;2022-10-16T13:47:45;20.40;99.90
5059;DHT22;2548;52.050;11.036;2022-10-16T13:50:14;20.50;99.90
5059;DHT22;2548;52.050;11.036;2022-10-16T13:52:42;20.50;99.90
5059;DHT22;2548;52.050;11.036;2022-10-16T13:55:16;20.40;99.90
5059;DHT22;2548;52.050;11.036;2022-10-16T13:57:44;20.50;99.90
5059;DHT22;2548;52.050;11.036;2022-10-16T14:00:19;20.40;99.90
5059;DHT22;2548;52.050;11.036;2022-10-16T14:02:51;20.30;99.90
5059;DHT22;2548;52.050;11.036;2022-10-16T14:05:19;20.00;99.90
5059;DHT22;2548;52.050;11.036;2022-10-16T14:07:49;19.90;99.90
5059;DHT22;2548;52.050;11.036;2022-10-16T14:10:23;19.70;99.90
5059;DHT22;2548;52.050;11.036;2022-10-16T14:12:56;19.60;99.90
5059;DHT22;2548;52.050;11.036;2022-10-16T14:15:25;19.70;99.90
5059;DHT22;2548;52.050;11.036;2022-10-16T14:17:53;19.70;99.90
5059;DHT22;2548;52.050;11.036;2022-10-16T14:20:24;19.70;99.90
5059;DHT22;2548;52.050;11.036;2022-10-16T14:22:59;19.80;99.90
5059;DHT22;2548;52.050;11.036;2022-10-16T14:25:31;19.70;99.90
5059;DHT22;2548;52.050;11.036;2022-10-16T14:28:01;19.80;99.90
5059;DHT22;2548;52.050;11.036;2022-10-16T14:30:30;19.70;99.90
5059;DHT22;2548;52.050;11.036;2022-10-16T14:33:01;19.50;99.90
5059;DHT22;2548;52.050;11.036;2022-10-16T14:35:31;19.40;99.90
5059;DHT22;2548;52.050;11.036;2022-10-16T14:38:00;19.40;99.90
5059;DHT22;2548;52.050;11.036;2022-10-16T14:40:31;19.40;99.90
5059;DHT22;2548;52.050;11.036;2022-10-16T14:43:00;19.40;99.90
5059;DHT22;2548;52.050;11.036;2022-10-16T14:45:30;19.30;99.90
5059;DHT22;2548;52.050;11.036;2022-10-16T14:48:01;19.30;99.90
5059;DHT22;2548;52.050;11.036;2022-10-16T14:50:29;19.30;99.90
5059;DHT22;2548;52.050;11.036;2022-10-16T14:52:58;19.30;99.90
5059;DHT22;2548;52.050;11.036;2022-10-16T14:55:26;19.30;99.90
5059;DHT22;2548;52.050;11.036;2022-10-16T14:57:55;19.20;99.90
5059;DHT22;2548;52.050;11.036;2022-10-16T15:00:24;19.10;99.90
5059;DHT22;2548;52.050;11.036;2022-10-16T15:02:51;19.10;99.90
5059;DHT22;2548;52.050;11.036;2022-10-16T15:05:21;19.00;99.90
5059;DHT22;2548;52.050;11.036;2022-10-16T15:07:51;18.90;99.90
5059;DHT22;2548;52.050;11.036;2022-10-16T15:10:20;18.80;99.90
5059;DHT22;2548;52.050;11.036;2022-10-16T15:12:49;18.80;99.90
5059;DHT22;2548;52.050;11.036;2022-10-16T15:15:31;18.80;99.90
5059;DHT22;2548;52.050;11.036;2022-10-16T15:18:00;18.70;99.90
5059;DHT22;2548;52.050;11.036;2022-10-16T15:20:32;18.70;99.90
5059;DHT22;2548;52.050;11.036;2022-10-16T15:23:02;18.70;99.90
5059;DHT22;2548;52.050;11.036;2022-10-16T15:25:36;18.70;99.90
5059;DHT22;2548;52.050;11.036;2022-10-16T15:28:06;18.70;99.90
5059;DHT22;2548;52.050;11.036;2022-10-16T15:30:37;18.60;99.90
5059;DHT22;2548;52.050;11.036;2022-10-16T15:33:11;18.60;99.90
5059;DHT22;2548;52.050;11.036;2022-10-16T15:35:40;18.60;99.90
5059;DHT22;2548;52.050;11.036;2022-10-16T15:38:11;18.50;99.90
5059;DHT22;2548;52.050;11.036;2022-10-16T15:40:41;18.50;99.90
5059;DHT22;2548;52.050;11.036;2022-10-16T15:43:09;18.40;99.90
5059;DHT22;2548;52.050;11.036;2022-10-16T15:45:39;18.40;99.90
5059;DHT22;2548;52.050;11.036;2022-10-16T15:48:11;18.30;99.90
5059;DHT22;2548;52.050;11.036;2022-10-16T15:50:40;18.20;99.90
5059;DHT22;2548;52.050;11.036;2022-10-16T15:53:09;18.10;99.90
5059;DHT22;2548;52.050;11.036;2022-10-16T15:55:38;18.00;99.90
5059;DHT22;2548;52.050;11.036;2022-10-16T15:58:07;17.90;99.90
5059;DHT22;2548;52.050;11.036;2022-10-16T16:00:40;17.90;99.90
5059;DHT22;2548;52.050;11.036;2022-10-16T16:03:09;17.80;99.90
5059;DHT22;2548;52.050;11.036;2022-10-16T16:05:38;17.70;99.90
5059;DHT22;2548;52.050;11.036;2022-10-16T16:08:07;17.60;99.90